createdAt,value
2022-11-01T00:00:11.499Z,4.59
2022-11-01T00:01:17.879Z,4.59
2022-11-01T00:02:21.817Z,4.59
2022-11-01T00:03:26.073Z,4.59
2022-11-01T00:04:29.922Z,4.60
2022-11-01T00:05:32.789Z,4.60
2022-11-01T00:06:36.741Z,4.61
2022-11-01T00:07:39.729Z,4.60
2022-11-01T00:08:44.016Z,4.61
2022-11-01T00:09:47.877Z,4.60
2022-11-01T00:10:50.723Z,4.61
2022-11-01T00:11:54.732Z,4.60
2022-11-01T00:12:57.518Z,4.59
2022-11-01T00:14:01.713Z,4.60
2022-11-01T00:15:05.098Z,4.60
2022-11-01T00:16:09.308Z,4.60
2022-11-01T00:17:13.783Z,4.59
2022-11-01T00:18:16.791Z,4.60
2022-11-01T00:19:24.731Z,4.60
2022-11-01T00:20:27.668Z,4.59
2022-11-01T00:21:34.519Z,4.59
2022-11-01T00:22:38.187Z,4.58
2022-11-01T00:23:42.338Z,4.57
2022-11-01T00:24:45.270Z,4.56
2022-11-01T00:25:49.397Z,4.57
2022-11-01T00:26:53.780Z,4.57
2022-11-01T00:27:56.561Z,4.57
2022-11-01T00:29:00.700Z,4.56
2022-11-01T00:30:04.390Z,4.56
2022-11-01T00:31:11.797Z,4.56
2022-11-01T00:32:15.920Z,4.56
2022-11-01T00:33:19.967Z,4.56
2022-11-01T00:34:24.399Z,4.53
2022-11-01T00:35:28.299Z,4.51
2022-11-01T00:36:31.177Z,4.49
2022-11-01T00:37:35.007Z,4.47
2022-11-01T00:38:37.848Z,4.47
2022-11-01T00:39:42.130Z,4.44
2022-11-01T00:40:45.341Z,4.46
2022-11-01T00:41:49.101Z,4.48
2022-11-01T00:42:52.151Z,4.49
2022-11-01T00:43:56.379Z,4.52
2022-11-01T00:45:00.093Z,4.53
2022-11-01T00:46:04.438Z,4.55
2022-11-01T00:47:07.199Z,4.54
2022-11-01T00:48:11.009Z,4.52
2022-11-01T00:49:14.748Z,4.52
2022-11-01T00:50:18.909Z,4.52
2022-11-01T00:51:23.103Z,4.52
2022-11-01T00:52:26.647Z,4.52
2022-11-01T00:53:30.576Z,4.51
2022-11-01T00:54:33.421Z,4.51
2022-11-01T00:55:37.339Z,4.52
2022-11-01T00:56:41.200Z,4.51
2022-11-01T00:57:44.896Z,4.53
2022-11-01T00:58:48.828Z,4.54
2022-11-01T01:01:00.891Z,4.56
2022-11-01T01:02:04.098Z,4.57
2022-11-01T01:03:08.401Z,4.58
2022-11-01T01:04:11.941Z,4.60
2022-11-01T01:05:16.411Z,4.61
2022-11-01T01:06:21.098Z,4.59
2022-11-01T01:07:25.160Z,4.56
2022-11-01T01:08:28.813Z,4.56
2022-11-01T01:09:33.029Z,4.55
2022-11-01T01:10:36.599Z,4.55
2022-11-01T01:11:40.759Z,4.59
2022-11-01T01:12:43.583Z,4.61
2022-11-01T01:13:47.696Z,4.64
2022-11-01T01:14:51.083Z,4.64
2022-11-01T01:16:15.168Z,4.65
2022-11-01T01:17:39.510Z,4.67
2022-11-01T01:19:02.728Z,4.66
2022-11-01T01:20:26.918Z,4.67
2022-11-01T01:21:51.047Z,4.69
2022-11-01T01:23:15.710Z,4.67
2022-11-01T01:24:39.169Z,4.66
2022-11-01T01:26:07.693Z,4.66
2022-11-01T01:27:30.338Z,4.67
2022-11-01T01:28:55.576Z,4.69
2022-11-01T01:30:18.368Z,4.74
2022-11-01T01:31:42.079Z,4.80
2022-11-01T01:33:05.408Z,4.84
2022-11-01T01:34:28.278Z,4.86
2022-11-01T01:35:45.309Z,4.89
2022-11-01T01:37:10.250Z,4.92
2022-11-01T01:38:34.520Z,4.94
2022-11-01T01:39:58.277Z,4.97
2022-11-01T01:41:39.918Z,4.97
2022-11-01T01:43:03.809Z,4.96
2022-11-01T01:45:08.101Z,5.00
2022-11-01T01:46:31.960Z,5.04
2022-11-01T01:47:49.231Z,5.09
2022-11-01T01:49:13.059Z,5.11
2022-11-01T01:50:38.822Z,5.16
2022-11-01T01:52:02.753Z,5.19
2022-11-01T01:53:30.161Z,5.22
2022-11-01T01:54:53.078Z,5.24
2022-11-01T01:56:18.463Z,5.27
2022-11-01T01:57:41.802Z,5.30
2022-11-01T01:59:08.561Z,5.32
2022-11-01T02:00:32.460Z,5.34
2022-11-01T02:01:55.408Z,5.36
2022-11-01T02:03:19.481Z,5.39
2022-11-01T02:04:45.080Z,5.40
2022-11-01T02:06:11.955Z,5.42
2022-11-01T02:07:34.730Z,5.44
2022-11-01T02:09:02.160Z,5.47
2022-11-01T02:10:25.082Z,5.51
2022-11-01T02:11:49.231Z,5.54
2022-11-01T02:13:13.692Z,5.57
2022-11-01T02:14:37.473Z,5.59
2022-11-01T02:16:13.562Z,5.59
2022-11-01T02:17:41.339Z,5.57
2022-11-01T02:19:47.482Z,5.58
2022-11-01T02:21:39.833Z,5.59
2022-11-01T02:23:19.754Z,5.62
2022-11-01T02:24:55.840Z,5.67
2022-11-01T02:26:56.718Z,5.70
2022-11-01T02:28:40.312Z,5.72
2022-11-01T02:30:19.149Z,5.75
2022-11-01T02:31:38.594Z,5.79
2022-11-01T02:33:03.741Z,5.84
2022-11-01T02:34:11.169Z,5.84
2022-11-01T02:35:21.007Z,5.87
2022-11-01T02:36:27.465Z,5.90
2022-11-01T02:37:35.834Z,5.93
2022-11-01T02:38:40.762Z,5.93
2022-11-01T02:39:49.873Z,5.91
2022-11-01T02:40:59.341Z,5.90
2022-11-01T02:42:06.467Z,5.90
2022-11-01T02:43:12.491Z,5.93
2022-11-01T02:44:18.481Z,5.95
2022-11-01T02:45:29.260Z,5.95
2022-11-01T02:46:53.163Z,5.96
2022-11-01T02:47:58.184Z,5.96
2022-11-01T02:49:03.623Z,5.98
2022-11-01T02:50:09.851Z,6.00
2022-11-01T02:51:13.649Z,6.03
2022-11-01T02:52:21.198Z,6.06
2022-11-01T02:53:24.201Z,6.07
2022-11-01T02:54:32.415Z,6.09
2022-11-01T02:55:36.451Z,6.08
2022-11-01T02:56:41.268Z,6.06
2022-11-01T02:57:44.243Z,6.08
2022-11-01T02:58:49.736Z,6.09
2022-11-01T02:59:52.529Z,6.11
2022-11-01T03:00:57.332Z,6.12
2022-11-01T03:02:08.550Z,6.14
2022-11-01T03:03:15.544Z,6.16
2022-11-01T03:04:19.982Z,6.19
2022-11-01T03:05:29.087Z,6.20
2022-11-01T03:06:35.110Z,6.23
2022-11-01T03:07:39.981Z,6.26
2022-11-01T03:08:45.740Z,6.28
2022-11-01T03:09:49.601Z,6.30
2022-11-01T03:10:55.390Z,6.34
2022-11-01T03:12:02.434Z,6.37
2022-11-01T03:13:11.812Z,6.41
2022-11-01T03:14:22.512Z,6.44
2022-11-01T03:15:28.161Z,6.49
2022-11-01T03:16:34.738Z,6.55
2022-11-01T03:17:44.262Z,6.58
2022-11-01T03:18:57.341Z,6.62
2022-11-01T03:20:06.809Z,6.66
2022-11-01T03:21:17.064Z,6.70
2022-11-01T03:22:24.271Z,6.73
2022-11-01T03:23:34.201Z,6.75
2022-11-01T03:24:40.877Z,6.79
2022-11-01T03:25:48.167Z,6.83
2022-11-01T03:26:56.230Z,6.84
2022-11-01T03:28:01.779Z,6.86
2022-11-01T03:29:07.851Z,6.87
2022-11-01T03:30:14.363Z,6.90
2022-11-01T03:31:20.421Z,6.91
2022-11-01T03:32:25.981Z,6.92
2022-11-01T03:33:30.252Z,6.94
2022-11-01T03:34:36.914Z,6.97
2022-11-01T03:35:43.862Z,7.02
2022-11-01T03:36:51.298Z,7.05
2022-11-01T03:38:00.000Z,7.09
2022-11-01T03:39:06.888Z,7.14
2022-11-01T03:40:11.651Z,7.15
2022-11-01T03:41:18.030Z,7.18
2022-11-01T03:42:22.052Z,7.20
2022-11-01T03:43:27.042Z,7.22
2022-11-01T03:44:33.524Z,7.23
2022-11-01T03:45:39.870Z,7.26
2022-11-01T03:46:42.904Z,7.28
2022-11-01T03:47:46.780Z,7.30
2022-11-01T03:48:49.643Z,7.34
2022-11-01T03:50:15.181Z,7.35
2022-11-01T03:51:20.567Z,7.37
2022-11-01T03:52:23.483Z,7.38
2022-11-01T03:53:27.573Z,7.39
2022-11-01T03:54:30.393Z,7.39
2022-11-01T03:55:34.242Z,7.41
2022-11-01T03:56:37.271Z,7.42
2022-11-01T03:57:43.049Z,7.44
2022-11-01T03:58:46.509Z,7.47
2022-11-01T03:59:50.383Z,7.49
2022-11-01T04:00:54.684Z,7.51
2022-11-01T04:01:58.873Z,7.51
2022-11-01T04:03:02.279Z,7.53
2022-11-01T04:04:06.573Z,7.56
2022-11-01T04:05:09.726Z,7.56
2022-11-01T04:06:13.704Z,7.56
2022-11-01T04:07:18.023Z,7.57
2022-11-01T04:08:21.856Z,7.59
2022-11-01T04:09:24.731Z,7.62
2022-11-01T04:10:29.412Z,7.64
2022-11-01T04:11:32.363Z,7.69
2022-11-01T04:12:36.530Z,7.71
2022-11-01T04:13:39.498Z,7.74
2022-11-01T04:15:00.406Z,7.75
2022-11-01T04:16:26.943Z,7.77
2022-11-01T04:17:53.389Z,7.78
2022-11-01T04:19:14.706Z,7.78
2022-11-01T04:20:37.151Z,7.79
2022-11-01T04:21:40.698Z,7.80
2022-11-01T04:22:46.022Z,7.83
2022-11-01T04:23:48.959Z,7.83
2022-11-01T04:24:53.141Z,7.86
2022-11-01T04:25:55.861Z,7.87
2022-11-01T04:26:59.662Z,7.89
2022-11-01T04:28:05.114Z,7.90
2022-11-01T04:29:09.122Z,7.92
2022-11-01T04:30:12.728Z,7.93
2022-11-01T04:31:16.535Z,7.95
2022-11-01T04:32:19.718Z,7.95
2022-11-01T04:33:23.825Z,7.97
2022-11-01T04:34:41.520Z,8.01
2022-11-01T04:35:46.050Z,8.02
2022-11-01T04:36:48.802Z,8.04
2022-11-01T04:37:59.336Z,8.07
2022-11-01T04:39:05.333Z,8.07
2022-11-01T04:40:09.581Z,8.09
2022-11-01T04:41:13.522Z,8.11
2022-11-01T04:42:16.313Z,8.12
2022-11-01T04:43:23.052Z,8.15
2022-11-01T04:44:25.919Z,8.16
2022-11-01T04:45:30.204Z,8.17
2022-11-01T04:46:32.949Z,8.19
2022-11-01T04:47:36.911Z,8.21
2022-11-01T04:48:39.772Z,8.22
2022-11-01T04:49:43.611Z,8.24
2022-11-01T04:50:47.552Z,8.25
2022-11-01T04:51:50.363Z,8.27
2022-11-01T04:52:54.172Z,8.28
2022-11-01T04:53:59.438Z,8.28
2022-11-01T04:55:02.264Z,8.30
2022-11-01T04:56:09.171Z,8.30
2022-11-01T04:57:23.102Z,8.31
2022-11-01T04:58:27.668Z,8.30
2022-11-01T04:59:30.510Z,8.32
2022-11-01T05:00:34.840Z,8.31
2022-11-01T05:01:41.006Z,8.32
2022-11-01T05:02:44.943Z,8.33
2022-11-01T05:03:50.108Z,8.36
2022-11-01T05:04:52.960Z,8.37
2022-11-01T05:05:57.149Z,8.39
2022-11-01T05:06:59.981Z,8.41
2022-11-01T05:08:04.363Z,8.42
2022-11-01T05:09:08.801Z,8.44
2022-11-01T05:10:13.171Z,8.46
2022-11-01T05:11:16.839Z,8.46
2022-11-01T05:12:22.513Z,8.47
2022-11-01T05:13:26.677Z,8.47
2022-11-01T05:14:29.436Z,8.49
2022-11-01T05:15:33.702Z,8.48
2022-11-01T05:16:38.063Z,8.48
2022-11-01T05:17:43.185Z,8.48
2022-11-01T05:18:49.015Z,8.48
2022-11-01T05:19:53.282Z,8.49
2022-11-01T05:20:56.939Z,8.51
2022-11-01T05:22:00.895Z,8.52
2022-11-01T05:23:05.820Z,8.53
2022-11-01T05:24:11.291Z,8.55
2022-11-01T05:25:14.093Z,8.55
2022-11-01T05:26:18.293Z,8.57
2022-11-01T05:27:21.099Z,8.58
2022-11-01T05:28:24.840Z,8.59
2022-11-01T05:29:33.011Z,8.61
2022-11-01T05:30:38.487Z,8.61
2022-11-01T05:31:41.270Z,8.61
2022-11-01T05:32:45.468Z,8.64
2022-11-01T05:33:48.262Z,8.66
2022-11-01T05:34:52.160Z,8.66
2022-11-01T05:35:54.955Z,8.69
2022-11-01T05:37:00.038Z,8.68
2022-11-01T05:38:05.360Z,8.71
2022-11-01T05:39:10.020Z,8.72
2022-11-01T05:40:14.526Z,8.73
2022-11-01T05:41:17.272Z,8.75
2022-11-01T05:42:21.139Z,8.77
2022-11-01T05:43:23.882Z,8.78
2022-11-01T05:44:28.501Z,8.79
2022-11-01T05:45:31.486Z,8.79
2022-11-01T05:46:35.399Z,8.81
2022-11-01T05:47:40.691Z,8.82
2022-11-01T05:48:45.073Z,8.84
2022-11-01T05:49:47.933Z,8.86
2022-11-01T05:50:51.734Z,8.87
2022-11-01T05:51:54.680Z,8.90
2022-11-01T05:53:06.615Z,8.92
2022-11-01T05:54:10.841Z,8.92
2022-11-01T05:55:14.666Z,8.92
2022-11-01T05:56:18.249Z,8.93
2022-11-01T05:57:21.990Z,8.95
2022-11-01T05:58:27.997Z,8.95
2022-11-01T05:59:34.623Z,8.96
2022-11-01T06:00:37.422Z,8.98
2022-11-01T06:01:41.509Z,9.00
2022-11-01T06:02:44.326Z,9.01
2022-11-01T06:03:51.471Z,9.05
2022-11-01T06:04:57.961Z,9.06
2022-11-01T06:06:03.261Z,9.07
2022-11-01T06:07:07.113Z,9.09
2022-11-01T06:08:09.971Z,9.11
2022-11-01T06:09:15.303Z,9.12
2022-11-01T06:10:18.135Z,9.14
2022-11-01T06:11:21.920Z,9.17
2022-11-01T06:12:25.536Z,9.20
2022-11-01T06:13:29.379Z,9.23
2022-11-01T06:14:32.250Z,9.23
2022-11-01T06:15:38.833Z,9.27
2022-11-01T06:16:44.275Z,9.29
2022-11-01T06:17:48.471Z,9.30
2022-11-01T06:18:51.321Z,9.32
2022-11-01T06:19:55.109Z,9.33
2022-11-01T06:20:58.521Z,9.34
2022-11-01T06:22:02.482Z,9.35
2022-11-01T06:23:09.313Z,9.39
2022-11-01T06:24:15.392Z,9.39
2022-11-01T06:25:18.330Z,9.42
2022-11-01T06:26:22.112Z,9.45
2022-11-01T06:27:24.863Z,9.46
2022-11-01T06:28:28.784Z,9.48
2022-11-01T06:29:31.620Z,9.52
2022-11-01T06:30:35.640Z,9.55
2022-11-01T06:31:38.505Z,9.57
2022-11-01T06:32:42.902Z,9.62
2022-11-01T06:33:45.664Z,9.67
2022-11-01T06:34:49.500Z,9.71
2022-11-01T06:35:52.309Z,9.75
2022-11-01T06:36:56.133Z,9.78
2022-11-01T06:38:02.737Z,9.82
2022-11-01T06:39:06.562Z,9.85
2022-11-01T06:40:13.398Z,9.90
2022-11-01T06:41:17.450Z,9.93
2022-11-01T06:42:20.395Z,9.98
2022-11-01T06:43:24.532Z,10.00
2022-11-01T06:44:27.271Z,10.04
2022-11-01T06:45:31.398Z,10.09
2022-11-01T06:46:34.495Z,10.13
2022-11-01T06:48:49.372Z,10.20
2022-11-01T06:49:52.328Z,10.26
2022-11-01T06:50:57.148Z,10.31
2022-11-01T06:52:00.001Z,10.37
2022-11-01T06:53:04.394Z,10.39
2022-11-01T06:54:07.261Z,10.44
2022-11-01T06:55:12.642Z,10.47
2022-11-01T06:56:15.661Z,10.52
2022-11-01T06:57:19.471Z,10.56
2022-11-01T06:58:22.281Z,10.61
2022-11-01T06:59:26.042Z,10.65
2022-11-01T07:00:30.462Z,10.71
2022-11-01T07:01:34.495Z,10.77
2022-11-01T07:02:37.532Z,10.83
2022-11-01T07:03:41.481Z,10.88
2022-11-01T07:04:44.358Z,10.94
2022-11-01T07:05:49.719Z,10.98
2022-11-01T07:06:52.502Z,11.02
2022-11-01T07:07:56.631Z,11.06
2022-11-01T07:09:01.342Z,11.09
2022-11-01T07:10:04.571Z,11.12
2022-11-01T07:11:10.027Z,11.15
2022-11-01T07:12:12.875Z,11.17
2022-11-01T07:13:16.679Z,11.18
2022-11-01T07:14:19.453Z,11.19
2022-11-01T07:15:23.352Z,11.20
2022-11-01T07:16:26.341Z,11.21
2022-11-01T07:17:30.201Z,11.21
2022-11-01T07:18:33.368Z,11.23
2022-11-01T07:19:37.134Z,11.24
2022-11-01T07:20:43.332Z,11.27
2022-11-01T07:21:47.192Z,11.27
2022-11-01T07:22:58.576Z,11.29
2022-11-01T07:24:02.441Z,11.30
2022-11-01T07:25:06.211Z,11.31
2022-11-01T07:26:11.481Z,11.30
2022-11-01T07:27:19.445Z,11.29
2022-11-01T07:28:25.213Z,11.30
2022-11-01T07:29:27.950Z,11.31
2022-11-01T07:30:32.350Z,11.33
2022-11-01T07:31:35.492Z,11.36
2022-11-01T07:32:40.027Z,11.36
2022-11-01T07:33:43.950Z,11.38
2022-11-01T07:34:46.791Z,11.40
2022-11-01T07:35:50.690Z,11.43
2022-11-01T07:36:53.427Z,11.44
2022-11-01T07:37:59.523Z,11.48
2022-11-01T07:39:02.702Z,11.51
2022-11-01T07:40:07.373Z,11.53
2022-11-01T07:41:12.656Z,11.54
2022-11-01T07:42:15.341Z,11.52
2022-11-01T07:43:19.346Z,11.52
2022-11-01T07:44:22.128Z,11.53
2022-11-01T07:45:26.535Z,11.53
2022-11-01T07:46:30.829Z,11.53
2022-11-01T07:47:33.673Z,11.52
2022-11-01T07:48:37.471Z,11.52
2022-11-01T07:49:40.221Z,11.51
2022-11-01T07:50:44.978Z,11.51
2022-11-01T07:51:48.812Z,11.52
2022-11-01T07:53:00.616Z,11.54
2022-11-01T07:54:05.064Z,11.54
2022-11-01T07:55:09.288Z,11.56
2022-11-01T07:56:15.060Z,11.58
2022-11-01T07:57:19.056Z,11.61
2022-11-01T07:58:22.962Z,11.64
2022-11-01T07:59:26.749Z,11.68
2022-11-01T08:00:30.959Z,11.73
2022-11-01T08:01:34.231Z,11.79
2022-11-01T08:02:38.383Z,11.82
2022-11-01T08:03:41.292Z,11.88
2022-11-01T08:04:45.213Z,11.93
2022-11-01T08:05:49.111Z,11.99
2022-11-01T08:06:53.076Z,12.05
2022-11-01T08:07:56.092Z,12.11
2022-11-01T08:09:00.100Z,12.16
2022-11-01T08:10:03.092Z,12.19
2022-11-01T08:11:07.168Z,12.22
2022-11-01T08:12:11.432Z,12.28
2022-11-01T08:13:19.891Z,12.30
2022-11-01T08:14:22.683Z,12.35
2022-11-01T08:15:27.032Z,12.37
2022-11-01T08:16:31.126Z,12.39
2022-11-01T08:17:35.672Z,12.40
2022-11-01T08:18:38.389Z,12.44
2022-11-01T08:19:42.293Z,12.51
2022-11-01T08:20:46.373Z,12.60
2022-11-01T08:21:51.268Z,12.67
2022-11-01T08:22:55.448Z,12.74
2022-11-01T08:23:59.343Z,12.82
2022-11-01T08:25:02.191Z,12.91
2022-11-01T08:26:06.951Z,13.00
2022-11-01T08:27:11.192Z,13.12
2022-11-01T08:28:16.380Z,13.23
2022-11-01T08:29:20.469Z,13.33
2022-11-01T08:30:23.286Z,13.42
2022-11-01T08:31:27.155Z,13.50
2022-11-01T08:32:29.903Z,13.55
2022-11-01T08:33:33.733Z,13.55
2022-11-01T08:34:37.571Z,13.52
2022-11-01T08:35:41.847Z,13.49
2022-11-01T08:36:47.401Z,13.46
2022-11-01T08:37:51.881Z,13.44
2022-11-01T08:38:56.019Z,13.39
2022-11-01T08:40:00.638Z,13.34
2022-11-01T08:41:06.043Z,13.29
2022-11-01T08:42:10.625Z,13.27
2022-11-01T08:43:14.552Z,13.26
2022-11-01T08:44:19.598Z,13.26
2022-11-01T08:45:22.403Z,13.27
2022-11-01T08:46:26.469Z,13.27
2022-11-01T08:47:32.437Z,13.31
2022-11-01T08:48:36.968Z,13.35
2022-11-01T08:49:40.346Z,13.41
2022-11-01T08:50:44.399Z,13.44
2022-11-01T08:51:47.604Z,13.45
2022-11-01T08:52:52.178Z,13.45
2022-11-01T08:53:58.144Z,13.47
2022-11-01T08:55:01.894Z,13.48
2022-11-01T08:56:06.244Z,13.50
2022-11-01T08:57:10.419Z,13.56
2022-11-01T08:58:14.222Z,13.61
2022-11-01T08:59:17.002Z,13.63
2022-11-01T09:00:21.618Z,13.68
2022-11-01T09:01:27.333Z,13.73
2022-11-01T09:02:31.312Z,13.79
2022-11-01T09:03:34.102Z,13.85
2022-11-01T09:04:37.962Z,13.90
2022-11-01T09:05:40.890Z,13.93
2022-11-01T09:06:44.670Z,13.96
2022-11-01T09:07:47.566Z,14.03
2022-11-01T09:08:53.642Z,14.11
2022-11-01T09:09:57.440Z,14.18
2022-11-01T09:11:04.283Z,14.21
2022-11-01T09:12:13.753Z,14.24
2022-11-01T09:13:20.761Z,14.27
2022-11-01T09:14:25.162Z,14.32
2022-11-01T09:15:29.023Z,14.40
2022-11-01T09:16:33.161Z,14.49
2022-11-01T09:17:35.981Z,14.60
2022-11-01T09:18:48.603Z,14.71
2022-11-01T09:19:51.392Z,14.81
2022-11-01T09:20:56.202Z,14.91
2022-11-01T09:22:00.144Z,15.01
2022-11-01T09:23:04.378Z,15.09
2022-11-01T09:24:10.439Z,15.19
2022-11-01T09:25:13.362Z,15.27
2022-11-01T09:26:17.292Z,15.38
2022-11-01T09:27:20.279Z,15.49
2022-11-01T09:28:28.870Z,15.62
2022-11-01T09:30:49.809Z,15.78
2022-11-01T09:31:58.929Z,15.82
2022-11-01T09:33:05.806Z,15.83
2022-11-01T09:34:12.242Z,15.84
2022-11-01T09:35:17.819Z,15.85
2022-11-01T09:36:21.495Z,15.87
2022-11-01T09:37:25.412Z,15.88
2022-11-01T09:38:28.261Z,15.87
2022-11-01T09:39:32.363Z,15.84
2022-11-01T09:40:44.219Z,15.82
2022-11-01T09:41:51.120Z,15.78
2022-11-01T09:42:56.744Z,15.75
2022-11-01T09:44:07.789Z,15.72
2022-11-01T09:45:16.011Z,15.69
2022-11-01T09:47:31.909Z,15.65
2022-11-01T09:48:36.613Z,15.59
2022-11-01T09:49:40.511Z,15.54
2022-11-01T09:50:45.290Z,15.48
2022-11-01T09:51:49.542Z,15.44
2022-11-01T09:52:53.629Z,15.41
2022-11-01T09:53:59.488Z,15.38
2022-11-01T09:55:02.392Z,15.33
2022-11-01T09:56:10.539Z,15.28
2022-11-01T09:57:18.890Z,15.23
2022-11-01T09:58:30.604Z,15.19
2022-11-01T09:59:38.514Z,15.18
2022-11-01T10:00:48.063Z,15.19
2022-11-01T10:02:07.305Z,15.24
2022-11-01T10:03:35.812Z,15.29
2022-11-01T10:04:59.022Z,15.31
2022-11-01T10:06:05.860Z,15.36
2022-11-01T10:07:14.002Z,15.42
2022-11-01T10:08:25.309Z,15.50
2022-11-01T10:09:34.782Z,15.53
2022-11-01T10:10:41.391Z,15.54
2022-11-01T10:12:08.552Z,15.52
2022-11-01T10:13:27.803Z,15.51
2022-11-01T10:14:54.855Z,15.53
2022-11-01T10:16:04.349Z,15.58
2022-11-01T10:17:12.843Z,15.62
2022-11-01T10:18:27.521Z,15.69
2022-11-01T10:19:33.541Z,15.75
2022-11-01T10:20:39.550Z,15.77
2022-11-01T10:21:46.555Z,15.79
2022-11-01T10:22:50.242Z,15.82
2022-11-01T10:23:55.131Z,15.85
2022-11-01T10:24:59.444Z,15.85
2022-11-01T10:26:04.345Z,15.83
2022-11-01T10:27:14.701Z,15.81
2022-11-01T10:28:22.853Z,15.76
2022-11-01T10:29:32.091Z,15.74
2022-11-01T10:30:38.103Z,15.73
2022-11-01T10:31:46.991Z,15.72
2022-11-01T10:32:52.835Z,15.70
2022-11-01T10:34:01.520Z,15.71
2022-11-01T10:35:06.838Z,15.72
2022-11-01T10:36:15.219Z,15.72
2022-11-01T10:37:27.392Z,15.73
2022-11-01T10:40:09.118Z,15.77
2022-11-01T10:41:18.202Z,15.80
2022-11-01T10:42:21.913Z,15.81
2022-11-01T10:43:26.109Z,15.85
2022-11-01T10:44:32.391Z,15.86
2022-11-01T10:45:35.101Z,15.91
2022-11-01T10:46:41.251Z,15.93
2022-11-01T10:47:46.962Z,15.94
2022-11-01T10:48:51.409Z,15.95
2022-11-01T10:50:07.056Z,15.97
2022-11-01T10:51:12.560Z,15.97
2022-11-01T10:52:18.141Z,15.97
2022-11-01T10:53:22.748Z,15.98
2022-11-01T10:54:29.538Z,16.00
2022-11-01T10:55:38.328Z,16.02
2022-11-01T10:56:44.998Z,16.03
2022-11-01T10:57:50.719Z,16.05
2022-11-01T10:59:01.921Z,16.05
2022-11-01T11:00:07.773Z,16.03
2022-11-01T11:01:13.906Z,16.03
2022-11-01T11:02:22.939Z,16.03
2022-11-01T11:03:31.907Z,16.03
2022-11-01T11:04:35.152Z,16.06
2022-11-01T11:05:39.267Z,16.10
2022-11-01T11:06:42.831Z,16.13
2022-11-01T11:07:46.667Z,16.18
2022-11-01T11:08:52.808Z,16.23
2022-11-01T11:09:57.183Z,16.25
2022-11-01T11:11:06.079Z,16.26
2022-11-01T11:12:13.512Z,16.28
2022-11-01T11:13:19.571Z,16.30
2022-11-01T11:14:24.255Z,16.32
2022-11-01T11:15:39.982Z,16.36
2022-11-01T11:16:47.233Z,16.41
2022-11-01T11:17:53.900Z,16.46
2022-11-01T11:19:19.865Z,16.53
2022-11-01T11:20:27.002Z,16.59
2022-11-01T11:21:34.482Z,16.61
2022-11-01T11:22:40.080Z,16.64
2022-11-01T11:23:44.700Z,16.66
2022-11-01T11:24:49.471Z,16.70
2022-11-01T11:25:52.287Z,16.76
2022-11-01T11:26:56.970Z,16.77
2022-11-01T11:28:00.671Z,16.79
2022-11-01T11:29:04.916Z,16.81
2022-11-01T11:30:11.521Z,16.81
2022-11-01T11:31:15.873Z,16.83
2022-11-01T11:32:22.018Z,16.82
2022-11-01T11:33:24.929Z,16.82
2022-11-01T11:34:32.001Z,16.79
2022-11-01T11:35:37.952Z,16.78
2022-11-01T11:36:47.823Z,16.75
2022-11-01T11:37:53.799Z,16.71
2022-11-01T11:38:58.282Z,16.72
2022-11-01T11:40:19.905Z,16.76
2022-11-01T11:41:28.888Z,16.83
2022-11-01T11:42:35.503Z,16.89
2022-11-01T11:43:42.880Z,16.92
2022-11-01T11:44:51.880Z,16.99
2022-11-01T11:46:09.438Z,17.02
2022-11-01T11:47:20.699Z,17.04
2022-11-01T11:48:26.739Z,17.06
2022-11-01T11:49:32.602Z,17.07
2022-11-01T11:50:38.088Z,17.10
2022-11-01T11:51:42.412Z,17.13
2022-11-01T11:52:47.329Z,17.18
2022-11-01T11:54:13.711Z,17.27
2022-11-01T11:55:28.678Z,17.30
2022-11-01T11:56:32.805Z,17.31
2022-11-01T11:57:35.784Z,17.32
2022-11-01T11:58:43.512Z,17.34
2022-11-01T11:59:52.043Z,17.36
2022-11-01T12:01:01.169Z,17.42
2022-11-01T12:02:06.893Z,17.46
2022-11-01T12:03:17.454Z,17.44
2022-11-01T12:04:22.059Z,17.42
2022-11-01T12:05:29.051Z,17.35
2022-11-01T12:06:33.685Z,17.32
2022-11-01T12:07:38.046Z,17.28
2022-11-01T12:08:47.083Z,17.26
2022-11-01T12:09:49.933Z,17.28
2022-11-01T12:10:59.807Z,17.30
2022-11-01T12:12:07.654Z,17.38
2022-11-01T12:13:27.221Z,17.52
2022-11-01T12:14:31.299Z,17.62
2022-11-01T12:15:40.077Z,17.70
2022-11-01T12:16:45.226Z,17.72
2022-11-01T12:17:49.112Z,17.76
2022-11-01T12:18:57.022Z,17.79
2022-11-01T12:20:01.625Z,17.79
2022-11-01T12:21:07.059Z,17.78
2022-11-01T12:22:10.291Z,17.73
2022-11-01T12:23:17.991Z,17.70
2022-11-01T12:24:23.180Z,17.68
2022-11-01T12:25:26.978Z,17.62
2022-11-01T12:26:32.162Z,17.57
2022-11-01T12:27:37.139Z,17.48
2022-11-01T12:28:43.171Z,17.35
2022-11-01T12:29:50.969Z,17.26
2022-11-01T12:30:59.779Z,17.19
2022-11-01T12:32:06.746Z,17.18
2022-11-01T12:34:28.582Z,17.18
2022-11-01T12:35:38.005Z,17.18
2022-11-01T12:36:46.426Z,17.25
2022-11-01T12:37:57.448Z,17.26
2022-11-01T12:39:05.521Z,17.30
2022-11-01T12:40:17.352Z,17.29
2022-11-01T12:41:28.268Z,17.29
2022-11-01T12:42:37.334Z,17.34
2022-11-01T12:43:49.590Z,17.41
2022-11-01T12:44:56.089Z,17.47
2022-11-01T12:46:02.669Z,17.49
2022-11-01T12:47:12.432Z,17.54
2022-11-01T12:48:20.744Z,17.62
2022-11-01T12:49:31.621Z,17.66
2022-11-01T12:50:42.610Z,17.69
2022-11-01T12:51:50.890Z,17.74
2022-11-01T12:52:58.433Z,17.77
2022-11-01T12:54:06.261Z,17.71
2022-11-01T12:55:20.730Z,17.60
2022-11-01T12:56:24.973Z,17.49
2022-11-01T12:57:28.479Z,17.39
2022-11-01T12:58:36.094Z,17.29
2022-11-01T12:59:39.513Z,17.19
2022-11-01T13:00:57.863Z,17.09
2022-11-01T13:02:10.223Z,16.99
2022-11-01T13:03:24.121Z,16.89
2022-11-01T13:04:31.914Z,16.82
2022-11-01T13:05:40.681Z,16.76
2022-11-01T13:06:59.482Z,16.74
2022-11-01T13:08:10.259Z,16.79
2022-11-01T13:09:18.030Z,16.82
2022-11-01T13:10:28.090Z,16.80
2022-11-01T13:11:39.650Z,16.79
2022-11-01T13:12:51.030Z,16.73
2022-11-01T13:14:02.060Z,16.67
2022-11-01T13:15:13.208Z,16.62
2022-11-01T13:16:20.142Z,16.56
2022-11-01T13:17:28.017Z,16.51
2022-11-01T13:18:41.064Z,16.51
2022-11-01T13:19:50.403Z,16.54
2022-11-01T13:20:58.498Z,16.58
2022-11-01T13:22:07.551Z,16.62
2022-11-01T13:23:16.807Z,16.64
2022-11-01T13:24:26.702Z,16.67
2022-11-01T13:25:37.176Z,16.73
2022-11-01T13:26:45.110Z,16.81
2022-11-01T13:27:51.190Z,16.83
2022-11-01T13:29:08.012Z,16.86
2022-11-01T13:30:13.928Z,16.90
2022-11-01T13:31:28.021Z,16.95
2022-11-01T13:32:36.710Z,17.03
2022-11-01T13:33:44.701Z,17.10
2022-11-01T13:34:58.459Z,17.16
2022-11-01T13:36:05.481Z,17.18
2022-11-01T13:37:18.570Z,17.22
2022-11-01T13:38:27.972Z,17.27
2022-11-01T13:39:39.272Z,17.30
2022-11-01T13:40:45.512Z,17.28
2022-11-01T13:41:53.651Z,17.24
2022-11-01T13:43:02.523Z,17.21
2022-11-01T13:44:10.938Z,17.17
2022-11-01T13:45:44.978Z,17.16
2022-11-01T13:47:08.363Z,17.08
2022-11-01T13:48:17.870Z,17.03
2022-11-01T13:49:45.101Z,17.02
2022-11-01T13:51:10.452Z,16.95
2022-11-01T13:52:16.808Z,16.87
2022-11-01T13:53:23.741Z,16.83
2022-11-01T13:54:29.020Z,16.79
2022-11-01T13:55:38.240Z,16.75
2022-11-01T13:56:44.990Z,16.78
2022-11-01T13:57:48.984Z,16.78
2022-11-01T13:58:53.212Z,16.74
2022-11-01T13:59:57.707Z,16.68
2022-11-01T14:01:29.130Z,16.62
2022-11-01T14:02:57.750Z,16.53
2022-11-01T14:04:48.809Z,16.46
2022-11-01T14:06:31.325Z,16.30
2022-11-01T14:07:36.932Z,16.15
2022-11-01T14:08:41.328Z,16.07
2022-11-01T14:09:50.828Z,16.02
2022-11-01T14:10:53.801Z,15.97
2022-11-01T14:11:58.858Z,15.88
2022-11-01T14:13:13.985Z,15.77
2022-11-01T14:14:52.462Z,15.70
2022-11-01T14:16:04.830Z,15.59
2022-11-01T14:18:01.154Z,15.47
2022-11-01T14:19:20.150Z,15.33
2022-11-01T14:20:45.520Z,15.23
2022-11-01T14:21:51.252Z,15.13
2022-11-01T14:22:57.198Z,15.07
2022-11-01T14:24:09.539Z,15.00
2022-11-01T14:25:35.512Z,14.88
2022-11-01T14:27:11.175Z,14.76
2022-11-01T14:28:22.102Z,14.63
2022-11-01T14:29:25.940Z,14.57
2022-11-01T14:30:35.170Z,14.49
2022-11-01T14:31:38.459Z,14.41
2022-11-01T14:32:44.018Z,14.33
2022-11-01T14:33:48.772Z,14.26
2022-11-01T14:35:01.712Z,14.19
2022-11-01T14:36:05.776Z,14.11
2022-11-01T14:37:19.453Z,14.06
2022-11-01T14:38:29.325Z,14.01
2022-11-01T14:39:40.374Z,13.97
2022-11-01T14:40:48.259Z,13.92
2022-11-01T14:41:56.114Z,13.87
2022-11-01T14:43:03.200Z,13.83
2022-11-01T14:44:12.290Z,13.78
2022-11-01T14:45:30.262Z,13.73
2022-11-01T14:46:46.411Z,13.71
2022-11-01T14:47:51.754Z,13.67
2022-11-01T14:49:00.471Z,13.62
2022-11-01T14:50:08.249Z,13.58
2022-11-01T14:51:17.160Z,13.52
2022-11-01T14:52:24.880Z,13.44
2022-11-01T14:53:34.268Z,13.38
2022-11-01T14:54:42.519Z,13.32
2022-11-01T14:55:46.326Z,13.26
2022-11-01T14:56:50.430Z,13.22
2022-11-01T14:58:08.655Z,13.16